Saint Kitts, Saint Kitts and Nevis

7:38 AM AST on July 28, 2016 (GMT -0400)
Robert L Bradshaw International | | Change Station

Elev 157 ft 17.30 °N, 62.68 °W | Updated 38 minutes ago

Partly Cloudy
Partly Cloudy
82 °F
Feels Like 90 °F
N
5
Wind Variable Wind from NNE

Today
High -- | Low -- °F
--% Chance of Precip.
Yesterday
High -- | Low -- °F
Precip. -- in
Pressure 30.01 in
Visibility 6.2 miles
Clouds Few 1900 ft
Heat Index 90 °F
Dew Point 75 °F
Humidity 79%
Rainfall 0.00 in
Snow Depth Not available.
5:49 AM 6:45 PM
Waning Crescent, 33% visible
METAR TKPK 281100Z 03004KT 9999 FEW019 28/24 Q1016
Pressure 30.01 in
Visibility 6.2 miles
Clouds Few 1900 ft
Heat Index 90 °F
Dew Point 75 °F
Humidity 79%
Rainfall 0.00 in
Snow Depth Not available.
5:49 AM 6:45 PM
Waning Crescent, 33% visible
METAR TKPK 281100Z 03004KT 9999 FEW019 28/24 Q1016

10-Day Weather Forecast

No radar image for this location.
×

Almanac

Astronomy

Jul. 28, 2016 Rise Set
Actual Time
Civil Twilight
Nautical Twilight
Astronomical Twilight
Moon
Length of Visible Light
Length of Day
Tomorrow will be .
, % of the Moon is Illuminated

Today's Extremes

Country Highs Country Lows

Community

WunderPhotos

Upload Photos

1,928,083 photos uploaded!

WunderBlog® & News

Nearby

Air Quality

  Air Quality AQ Index Pollutant
Not available.

Snow Depth

Station Depth Elevation

Earthquake Activity

City Distance Mag. Time & Date
Minimum magnitude displayed is 2.5.

Coastal Water Temperatures

Place Temperature

Stations

Nearby Weather Stations

Station Location Temp. Windchill Dew Point Humidity Wind Precip. Elev Updated Type